createdAt,value
2018-09-21T00:01:24.447Z,4.78
2018-09-21T00:03:57.570Z,4.58
2018-09-21T00:06:25.439Z,4.35
2018-09-21T00:08:53.599Z,4.25
2018-09-21T00:11:21.512Z,4.65
2018-09-21T00:13:49.872Z,4.62
2018-09-21T00:16:18.031Z,4.70
2018-09-21T00:18:45.667Z,4.53
2018-09-21T00:21:13.304Z,4.80
2018-09-21T00:23:41.574Z,4.80
2018-09-21T00:26:09.523Z,4.95
2018-09-21T00:28:37.179Z,4.70
2018-09-21T00:31:05.179Z,4.92
2018-09-21T00:33:33.155Z,4.80
2018-09-21T00:36:00.711Z,5.08
2018-09-21T00:38:28.587Z,5.25
2018-09-21T00:40:56.287Z,5.30
2018-09-21T00:43:23.979Z,4.90
2018-09-21T00:45:52.039Z,4.78
2018-09-21T00:48:19.915Z,5.10
2018-09-21T00:50:47.503Z,5.72
2018-09-21T00:53:15.070Z,5.58
2018-09-21T00:55:43.358Z,5.50
2018-09-21T00:58:11.042Z,5.47
2018-09-21T01:04:09.294Z,5.92
2018-09-21T01:06:36.894Z,6.50
2018-09-21T01:09:07.156Z,6.50
2018-09-21T01:11:34.850Z,6.33
2018-09-21T01:14:02.435Z,6.50
2018-09-21T01:16:29.986Z,6.28
2018-09-21T01:18:57.682Z,7.53
2018-09-21T01:21:25.258Z,7.03
2018-09-21T01:23:53.178Z,7.08
2018-09-21T01:26:21.078Z,6.90
2018-09-21T01:28:48.858Z,6.37
2018-09-21T01:31:17.438Z,6.33
2018-09-21T01:33:45.374Z,7.10
2018-09-21T01:36:13.014Z,7.75
2018-09-21T01:38:40.962Z,7.35
2018-09-21T01:41:08.505Z,8.28
2018-09-21T01:43:36.178Z,8.25
2018-09-21T01:46:03.918Z,7.53
2018-09-21T01:48:31.482Z,8.33
2018-09-21T01:50:59.441Z,8.43
2018-09-21T01:53:27.117Z,8.50
2018-09-21T01:55:55.517Z,9.53
2018-09-21T01:58:23.401Z,9.35
2018-09-21T02:00:50.966Z,9.13
2018-09-21T02:03:18.934Z,9.20
2018-09-21T02:05:46.534Z,10.55
2018-09-21T02:08:14.186Z,10.03
2018-09-21T02:10:42.137Z,9.78
2018-09-21T02:13:09.902Z,10.00
2018-09-21T02:15:37.529Z,10.38
2018-09-21T02:18:05.230Z,10.43
2018-09-21T02:20:32.926Z,10.93
2018-09-21T02:23:00.590Z,10.60
2018-09-21T02:25:28.146Z,10.88
2018-09-21T02:27:55.778Z,11.22
2018-09-21T02:30:23.542Z,11.33
2018-09-21T02:32:51.210Z,10.82
2018-09-21T02:35:18.826Z,10.95
2018-09-21T02:37:46.365Z,11.75
2018-09-21T02:40:14.110Z,11.97
2018-09-21T02:42:42.077Z,11.60
2018-09-21T02:45:09.881Z,15.43
2018-09-21T02:47:37.449Z,11.95
2018-09-21T02:50:05.030Z,12.50
2018-09-21T02:52:33.214Z,11.48
2018-09-21T02:55:00.914Z,12.37
2018-09-21T02:57:28.582Z,13.10
2018-09-21T02:59:56.187Z,12.58
2018-09-21T03:02:23.905Z,12.93
2018-09-21T03:04:56.287Z,12.73
2018-09-21T03:07:25.290Z,11.70
2018-09-21T03:09:53.318Z,13.30
2018-09-21T03:12:21.065Z,13.18
2018-09-21T03:14:48.730Z,13.85
2018-09-21T03:17:16.274Z,13.30
2018-09-21T03:19:43.933Z,14.10
2018-09-21T03:22:11.514Z,13.90
2018-09-21T03:24:39.069Z,14.55
2018-09-21T03:27:07.265Z,13.32
2018-09-21T03:29:34.838Z,14.30
2018-09-21T03:32:02.426Z,14.18
2018-09-21T03:34:30.085Z,14.15
2018-09-21T03:36:57.761Z,14.53
2018-09-21T03:39:25.394Z,15.15
2018-09-21T03:41:53.218Z,13.95
2018-09-21T03:44:20.849Z,14.50
2018-09-21T03:46:48.757Z,15.28
2018-09-21T03:49:16.674Z,15.50
2018-09-21T03:51:44.246Z,16.17
2018-09-21T03:54:12.161Z,16.02
2018-09-21T03:56:39.741Z,15.38
2018-09-21T03:59:07.621Z,15.80
2018-09-21T04:01:35.262Z,16.52
2018-09-21T04:04:02.863Z,15.45
2018-09-21T04:06:31.009Z,15.78
2018-09-21T04:08:58.772Z,15.53
2018-09-21T04:11:26.429Z,16.23
2018-09-21T04:13:54.217Z,15.78
2018-09-21T04:16:21.985Z,15.68
2018-09-21T04:18:49.789Z,16.62
2018-09-21T04:21:17.893Z,16.37
2018-09-21T04:23:45.604Z,16.67
2018-09-21T04:26:13.204Z,16.85
2018-09-21T04:28:40.982Z,15.88
2018-09-21T04:31:08.524Z,17.12
2018-09-21T04:33:36.180Z,16.52
2018-09-21T04:36:03.915Z,16.65
2018-09-21T04:38:31.551Z,17.12
2018-09-21T04:40:59.192Z,16.00
2018-09-21T04:43:26.994Z,17.27
2018-09-21T04:45:54.770Z,17.52
2018-09-21T04:48:23.040Z,16.67
2018-09-21T04:50:50.607Z,17.77
2018-09-21T04:53:18.488Z,16.73
2018-09-21T04:55:46.032Z,17.60
2018-09-21T04:58:13.703Z,17.77
2018-09-21T05:00:41.362Z,17.37
2018-09-21T05:03:09.076Z,16.65
2018-09-21T05:05:37.077Z,17.70
2018-09-21T05:08:04.787Z,17.90
2018-09-21T05:10:32.660Z,16.37
2018-09-21T05:13:00.252Z,17.40
2018-09-21T05:15:27.776Z,18.07
2018-09-21T05:17:55.556Z,17.25
2018-09-21T05:20:23.427Z,17.55
2018-09-21T05:22:51.128Z,17.85
2018-09-21T05:25:18.728Z,17.07
2018-09-21T05:27:46.324Z,17.42
2018-09-21T05:30:13.896Z,17.70
2018-09-21T05:32:41.601Z,17.45
2018-09-21T05:35:09.315Z,17.37
2018-09-21T05:37:37.108Z,17.20
2018-09-21T05:40:04.680Z,17.27
2018-09-21T05:42:32.292Z,18.37
2018-09-21T05:44:59.849Z,18.05
2018-09-21T05:47:27.438Z,17.32
2018-09-21T05:49:55.351Z,18.07
2018-09-21T05:52:23.599Z,18.00
2018-09-21T05:54:51.312Z,16.55
2018-09-21T05:57:19.220Z,17.52
2018-09-21T05:59:47.028Z,17.85
2018-09-21T06:02:15.331Z,16.65
2018-09-21T06:04:42.925Z,17.65
2018-09-21T06:07:10.804Z,18.23
2018-09-21T06:09:38.412Z,18.10
2018-09-21T06:12:06.036Z,17.48
2018-09-21T06:14:33.687Z,17.05
2018-09-21T06:17:01.472Z,16.40
2018-09-21T06:19:29.144Z,17.10
2018-09-21T06:21:56.828Z,17.15
2018-09-21T06:24:24.460Z,17.82
2018-09-21T06:26:52.189Z,16.97
2018-09-21T06:29:20.027Z,16.42
2018-09-21T06:31:47.791Z,17.35
2018-09-21T06:34:15.484Z,17.82
2018-09-21T06:36:43.152Z,17.20
2018-09-21T06:39:11.667Z,17.07
2018-09-21T06:41:39.645Z,17.02
2018-09-21T06:44:07.928Z,16.95
2018-09-21T06:46:35.800Z,15.80
2018-09-21T06:49:03.515Z,16.65
2018-09-21T06:51:31.284Z,16.48
2018-09-21T06:53:59.392Z,16.52
2018-09-21T06:56:26.944Z,16.37
2018-09-21T06:58:54.684Z,15.98
2018-09-21T07:01:22.990Z,15.50
2018-09-21T07:03:50.583Z,16.00
2018-09-21T07:06:18.324Z,16.62
2018-09-21T07:08:46.275Z,16.62
2018-09-21T07:11:13.855Z,16.85
2018-09-21T07:13:41.435Z,16.40
2018-09-21T07:16:09.047Z,15.90
2018-09-21T07:18:37.011Z,16.07
2018-09-21T07:21:04.735Z,16.42
2018-09-21T07:23:32.703Z,15.30
2018-09-21T07:26:00.595Z,15.20
2018-09-21T07:31:59.160Z,13.80
2018-09-21T07:34:27.220Z,14.40
2018-09-21T07:36:55.027Z,13.85
2018-09-21T07:39:22.631Z,14.28
2018-09-21T07:41:50.299Z,12.95
2018-09-21T07:44:17.879Z,13.22
2018-09-21T07:46:45.447Z,13.55
2018-09-21T07:49:13.008Z,12.98
2018-09-21T07:51:40.975Z,12.88
2018-09-21T07:54:08.520Z,12.20
2018-09-21T07:56:36.065Z,11.70
2018-09-21T07:59:03.725Z,11.55
2018-09-21T08:01:31.392Z,11.30
2018-09-21T08:03:59.159Z,11.03
2018-09-21T08:06:27.119Z,10.90
2018-09-21T08:08:55.032Z,10.15
2018-09-21T08:11:22.579Z,10.63
2018-09-21T08:13:50.183Z,10.03
2018-09-21T08:16:17.711Z,10.55
2018-09-21T08:18:45.279Z,9.95
2018-09-21T08:21:13.159Z,10.48
2018-09-21T08:23:40.836Z,11.15
2018-09-21T08:26:08.519Z,10.93
2018-09-21T08:30:05.643Z,11.18
2018-09-21T08:32:33.275Z,10.38
2018-09-21T08:35:00.904Z,10.63
2018-09-21T08:37:28.516Z,10.60
2018-09-21T08:39:56.575Z,10.80
2018-09-21T08:42:24.191Z,10.90
2018-09-21T08:44:52.771Z,11.12
2018-09-21T08:47:20.438Z,10.65
2018-09-21T08:49:48.481Z,11.15
2018-09-21T08:52:16.451Z,10.32
2018-09-21T08:54:43.999Z,10.10
2018-09-21T08:57:11.877Z,10.95
2018-09-21T08:59:39.475Z,11.38
2018-09-21T09:02:07.179Z,11.33
2018-09-21T09:04:34.739Z,11.73
2018-09-21T09:07:02.299Z,11.28
2018-09-21T09:09:30.203Z,10.70
2018-09-21T09:11:58.831Z,11.00
2018-09-21T09:14:26.429Z,11.15
2018-09-21T09:16:54.155Z,11.25
2018-09-21T09:19:22.151Z,10.53
2018-09-21T09:21:49.736Z,10.78
2018-09-21T09:24:17.335Z,10.45
2018-09-21T09:26:44.910Z,9.48
2018-09-21T09:29:12.810Z,11.10
2018-09-21T09:31:40.370Z,10.18
2018-09-21T09:34:08.311Z,10.45
2018-09-21T09:36:35.971Z,10.10
2018-09-21T09:39:06.719Z,10.53
2018-09-21T09:41:34.431Z,10.72
2018-09-21T09:44:02.015Z,10.32
2018-09-21T09:46:29.956Z,9.95
2018-09-21T09:48:57.804Z,9.55
2018-09-21T09:51:25.363Z,10.23
2018-09-21T09:53:53.575Z,10.90
2018-09-21T09:56:21.155Z,10.58
2018-09-21T09:58:48.855Z,10.10
2018-09-21T10:01:16.738Z,9.95
2018-09-21T10:03:44.938Z,9.48
2018-09-21T10:06:12.848Z,10.05
2018-09-21T10:08:40.390Z,9.90
2018-09-21T10:11:08.410Z,10.10
2018-09-21T10:13:36.186Z,9.80
2018-09-21T10:16:04.250Z,10.15
2018-09-21T10:18:31.826Z,9.58
2018-09-21T10:20:59.602Z,10.53
2018-09-21T10:23:27.275Z,11.68
2018-09-21T10:25:54.942Z,11.05
2018-09-21T10:28:23.114Z,10.75
2018-09-21T10:30:50.446Z,10.95
2018-09-21T10:33:18.769Z,8.55
2018-09-21T10:35:46.712Z,9.63
2018-09-21T10:38:14.546Z,9.13
2018-09-21T10:40:42.150Z,7.97
2018-09-21T10:43:10.233Z,8.35
2018-09-21T10:45:38.117Z,7.87
2018-09-21T10:48:05.938Z,6.65
2018-09-21T10:50:33.530Z,5.90
2018-09-21T10:53:01.457Z,6.03
2018-09-21T10:55:29.683Z,6.45
2018-09-21T10:57:57.245Z,5.95
2018-09-21T11:00:25.078Z,6.67
2018-09-21T11:02:52.978Z,6.45
2018-09-21T11:05:20.542Z,6.40
2018-09-21T11:07:48.693Z,5.95
2018-09-21T11:10:16.897Z,6.25
2018-09-21T11:12:44.565Z,6.08
2018-09-21T11:15:12.689Z,6.45
2018-09-21T11:17:40.573Z,5.83
2018-09-21T11:20:08.517Z,6.10
2018-09-21T11:22:36.065Z,5.20
2018-09-21T11:25:04.121Z,5.72
2018-09-21T11:27:32.065Z,6.33
2018-09-21T11:30:00.017Z,5.85
2018-09-21T11:32:28.009Z,6.00
2018-09-21T11:34:55.837Z,8.45
2018-09-21T11:37:23.389Z,5.87
2018-09-21T11:39:51.095Z,5.35
2018-09-21T11:42:18.681Z,5.87
2018-09-21T11:44:46.684Z,7.00
2018-09-21T11:47:14.497Z,5.97
2018-09-21T11:49:42.589Z,5.22
2018-09-21T11:52:10.260Z,5.87
2018-09-21T11:54:37.933Z,5.00
2018-09-21T11:57:05.849Z,5.47
2018-09-21T11:59:33.597Z,5.45
2018-09-21T12:02:01.338Z,5.08
2018-09-21T12:04:29.581Z,5.17
2018-09-21T12:09:55.853Z,4.85
2018-09-21T12:12:23.397Z,5.20
2018-09-21T12:14:51.677Z,4.75
2018-09-21T12:17:19.617Z,4.50
2018-09-21T12:19:47.329Z,4.62
2018-09-21T12:22:15.734Z,4.78
2018-09-21T12:24:43.424Z,4.30
2018-09-21T12:27:11.140Z,5.08
2018-09-21T12:29:39.061Z,4.67
2018-09-21T12:32:06.680Z,5.12
2018-09-21T12:34:34.205Z,4.97
2018-09-21T12:37:01.773Z,5.37
2018-09-21T12:39:29.632Z,5.35
2018-09-21T12:41:57.264Z,5.50
2018-09-21T12:44:24.873Z,5.12
2018-09-21T12:46:52.655Z,5.80
2018-09-21T12:49:20.224Z,5.95
2018-09-21T12:51:47.900Z,5.83
2018-09-21T12:54:15.676Z,5.80
2018-09-21T12:56:43.304Z,6.30
2018-09-21T12:59:11.204Z,7.85
2018-09-21T13:01:39.028Z,6.03
2018-09-21T13:04:06.724Z,6.50
2018-09-21T13:06:34.284Z,6.45
2018-09-21T13:09:01.907Z,8.10
2018-09-21T13:11:29.460Z,6.87
2018-09-21T13:13:57.175Z,7.10
2018-09-21T13:16:24.739Z,7.03
2018-09-21T13:18:53.115Z,6.70
2018-09-21T14:02:36.761Z,6.28
2018-09-21T14:05:05.237Z,6.05
2018-09-21T14:07:33.929Z,6.78
2018-09-21T14:10:02.752Z,6.53
2018-09-21T14:12:31.656Z,6.08
2018-09-21T14:15:00.147Z,6.58
2018-09-21T14:17:28.593Z,6.25
2018-09-21T14:19:57.071Z,6.58
2018-09-21T14:22:25.555Z,7.03
2018-09-21T14:24:54.150Z,6.45
2018-09-21T14:27:22.995Z,6.42
2018-09-21T14:29:52.334Z,7.08
2018-09-21T14:32:21.088Z,6.72
2018-09-21T14:34:49.553Z,6.90
2018-09-21T14:37:18.024Z,7.33
2018-09-21T14:39:46.472Z,6.78
2018-09-21T14:42:14.923Z,7.10
2018-09-21T14:44:43.483Z,6.95
2018-09-21T14:47:11.972Z,6.33
2018-09-21T14:49:40.475Z,7.22
2018-09-21T14:52:08.944Z,6.47
2018-09-21T14:54:37.452Z,6.95
2018-09-21T14:57:05.924Z,7.03
2018-09-21T14:59:34.371Z,8.65
2018-09-21T15:02:03.153Z,7.33
2018-09-21T15:04:31.624Z,7.10
2018-09-21T15:07:00.075Z,7.20
2018-09-21T15:09:28.754Z,6.72
2018-09-21T15:11:57.488Z,7.05
2018-09-21T15:14:26.297Z,7.17
2018-09-21T15:16:54.767Z,6.90
2018-09-21T15:19:23.648Z,6.95
2018-09-21T15:21:52.412Z,7.20
2018-09-21T15:24:20.892Z,7.45
2018-09-21T15:26:49.353Z,7.03
2018-09-21T15:29:18.408Z,7.33
2018-09-21T15:31:47.151Z,7.30
2018-09-21T15:34:15.623Z,7.67
2018-09-21T15:36:44.091Z,7.37
2018-09-21T15:39:13.114Z,7.53
2018-09-21T15:41:42.294Z,7.08
2018-09-21T15:44:10.777Z,7.95
2018-09-21T15:46:39.227Z,8.43
2018-09-21T15:49:07.741Z,8.23
2018-09-21T15:51:36.705Z,7.80
2018-09-21T15:54:05.209Z,8.15
2018-09-21T15:56:33.789Z,8.40
2018-09-21T15:59:02.249Z,7.80
2018-09-21T16:01:30.733Z,7.92
2018-09-21T16:03:59.216Z,8.45
2018-09-21T16:06:32.528Z,8.33
2018-09-21T16:09:02.213Z,8.28
2018-09-21T16:11:30.985Z,8.58
2018-09-21T16:13:59.864Z,8.95
2018-09-21T16:16:28.319Z,8.78
2018-09-21T16:18:56.777Z,8.63
2018-09-21T16:21:25.232Z,8.90
2018-09-21T16:23:53.723Z,9.00
2018-09-21T16:26:22.451Z,8.90
2018-09-21T16:28:50.951Z,9.58
2018-09-21T16:31:19.499Z,9.15
2018-09-21T16:33:48.147Z,8.83
2018-09-21T16:36:16.642Z,8.70
2018-09-21T16:38:45.182Z,9.23
2018-09-21T16:41:13.679Z,9.93
2018-09-21T16:43:42.256Z,10.55
2018-09-21T16:46:10.759Z,9.80
2018-09-21T16:48:39.519Z,9.73
2018-09-21T16:51:08.010Z,10.45
2018-09-21T16:53:36.535Z,10.03
2018-09-21T16:56:04.996Z,10.43
2018-09-21T16:58:33.468Z,11.15
2018-09-21T17:01:01.934Z,10.38
2018-09-21T17:03:30.420Z,11.45
2018-09-21T17:05:58.940Z,11.10
2018-09-21T17:08:27.407Z,10.55
2018-09-21T17:10:56.209Z,10.82
2018-09-21T17:13:24.676Z,10.98
2018-09-21T17:15:53.164Z,10.72
2018-09-21T17:18:21.636Z,11.03
2018-09-21T17:20:50.192Z,11.28
2018-09-21T17:23:18.676Z,11.88
2018-09-21T17:25:47.188Z,12.95
2018-09-21T17:28:16.254Z,12.53
2018-09-21T17:30:45.127Z,12.18
2018-09-21T17:33:13.651Z,12.98
2018-09-21T17:35:42.363Z,12.35
2018-09-21T17:38:10.912Z,12.03
2018-09-21T17:40:39.838Z,12.90
2018-09-21T17:43:08.362Z,12.95
2018-09-21T17:45:37.046Z,12.33
2018-09-21T17:48:05.710Z,13.50
2018-09-21T17:50:34.211Z,13.75
2018-09-21T17:53:02.693Z,13.98
2018-09-21T17:55:31.180Z,13.60
2018-09-21T17:57:59.932Z,13.65
2018-09-21T18:00:28.513Z,13.38
2018-09-21T18:02:56.989Z,13.50
2018-09-21T18:05:25.465Z,12.88
2018-09-21T18:07:53.943Z,13.20
2018-09-21T18:10:22.575Z,14.70
2018-09-21T18:12:51.175Z,11.97
2018-09-21T18:15:23.175Z,12.93
2018-09-21T18:17:53.299Z,14.78
2018-09-21T18:20:22.115Z,13.35
2018-09-21T18:22:50.988Z,12.82
2018-09-21T18:25:20.252Z,13.43
2018-09-21T18:27:48.733Z,13.58
2018-09-21T18:33:48.390Z,13.48
2018-09-21T18:36:18.684Z,14.00
2018-09-21T18:38:47.199Z,13.93
2018-09-21T18:41:15.896Z,13.65
2018-09-21T18:43:44.394Z,13.95
2018-09-21T18:46:13.027Z,13.62
2018-09-21T18:48:42.031Z,12.95
2018-09-21T18:51:11.287Z,13.90
2018-09-21T18:53:40.023Z,13.22
2018-09-21T18:56:08.546Z,14.58
2018-09-21T18:58:37.235Z,13.32
2018-09-21T19:01:05.736Z,14.23
2018-09-21T19:03:34.439Z,12.85
2018-09-21T19:06:02.957Z,14.63
2018-09-21T19:08:31.411Z,14.35
2018-09-21T19:11:00.560Z,14.05
2018-09-21T19:13:29.049Z,14.13
2018-09-21T19:15:57.666Z,12.98
2018-09-21T19:18:26.173Z,13.43
2018-09-21T19:20:54.709Z,13.38
2018-09-21T19:23:23.222Z,12.03
2018-09-21T19:25:51.728Z,12.70
2018-09-21T19:28:20.221Z,13.80
2018-09-21T19:30:49.934Z,13.55
2018-09-21T19:33:18.550Z,13.15
2018-09-21T19:35:48.170Z,12.33
2018-09-21T19:38:16.638Z,12.53
2018-09-21T19:40:45.558Z,12.45
2018-09-21T19:43:14.086Z,12.98
2018-09-21T19:45:42.704Z,13.35
2018-09-21T19:48:11.605Z,12.95
2018-09-21T19:50:41.674Z,12.35
2018-09-21T19:53:10.367Z,13.13
2018-09-21T19:55:39.194Z,12.00
2018-09-21T19:58:09.154Z,7.45
2018-09-21T20:00:37.854Z,7.47
2018-09-21T20:03:06.884Z,6.83
2018-09-21T20:05:35.623Z,7.20
2018-09-21T20:08:08.010Z,6.28
2018-09-21T20:10:36.855Z,3.30
2018-09-21T20:13:05.364Z,2.20
2018-09-21T20:15:34.181Z,2.37
2018-09-21T20:18:02.917Z,2.80
2018-09-21T20:20:31.377Z,2.22
2018-09-21T20:23:01.005Z,1.50
2018-09-21T20:25:29.517Z,2.37
2018-09-21T20:27:58.016Z,1.95
2018-09-21T20:30:31.904Z,1.70
2018-09-21T20:33:05.687Z,1.45
2018-09-21T20:35:34.230Z,1.12
2018-09-21T20:38:03.073Z,1.10
2018-09-21T20:40:31.774Z,1.47
2018-09-21T20:43:00.530Z,0.93
2018-09-21T20:45:29.017Z,1.15
2018-09-21T20:47:57.591Z,1.50
2018-09-21T20:50:26.137Z,1.15
2018-09-21T20:52:54.974Z,1.00
2018-09-21T20:55:23.493Z,1.37
2018-09-21T20:57:51.986Z,1.20
2018-09-21T21:00:20.605Z,1.07
2018-09-21T21:02:49.449Z,1.00
2018-09-21T21:05:17.959Z,1.20
2018-09-21T21:07:46.784Z,1.10
2018-09-21T21:10:15.247Z,1.32
2018-09-21T21:12:44.068Z,1.22
2018-09-21T21:15:12.648Z,1.22
2018-09-21T21:17:41.312Z,1.20
2018-09-21T21:20:09.768Z,1.25
2018-09-21T21:22:38.204Z,1.50
2018-09-21T21:25:06.684Z,1.42
2018-09-21T21:27:35.144Z,1.10
2018-09-21T21:30:03.621Z,2.35
2018-09-21T21:32:32.075Z,1.77
2018-09-21T21:35:00.738Z,1.70
2018-09-21T21:37:29.272Z,2.35
2018-09-21T21:39:57.716Z,1.60
2018-09-21T21:42:26.479Z,1.67
2018-09-21T21:44:55.075Z,1.80
2018-09-21T21:47:23.535Z,1.67
2018-09-21T21:49:52.463Z,1.40
2018-09-21T21:52:20.919Z,1.30
2018-09-21T21:54:49.371Z,1.35
2018-09-21T21:57:17.807Z,1.00
2018-09-21T21:59:46.327Z,0.90
2018-09-21T22:02:14.770Z,1.10
2018-09-21T22:04:43.287Z,1.92
2018-09-21T22:07:12.614Z,1.47
2018-09-21T22:09:41.206Z,1.40
2018-09-21T22:12:15.050Z,1.00
2018-09-21T22:14:43.690Z,1.12
2018-09-21T22:17:12.482Z,1.10
2018-09-21T22:19:41.028Z,2.62
2018-09-21T22:22:09.486Z,2.87
2018-09-21T22:24:37.998Z,2.90
2018-09-21T22:27:06.538Z,3.65
2018-09-21T22:29:35.253Z,3.40
2018-09-21T22:32:03.721Z,2.10
2018-09-21T22:34:32.190Z,1.12
2018-09-21T22:37:00.657Z,1.10
2018-09-21T22:39:29.177Z,0.68
2018-09-21T22:41:57.646Z,0.95
2018-09-21T22:44:26.601Z,0.75
2018-09-21T22:46:55.150Z,0.82
2018-09-21T22:49:24.513Z,0.90
2018-09-21T22:51:52.977Z,0.80
2018-09-21T22:54:21.758Z,0.90
2018-09-21T22:56:50.778Z,1.00
2018-09-21T22:59:19.385Z,0.75
2018-09-21T23:01:47.833Z,0.78
2018-09-21T23:04:16.289Z,0.60
2018-09-21T23:06:45.046Z,0.80
2018-09-21T23:09:13.784Z,0.55
2018-09-21T23:11:42.909Z,0.70
2018-09-21T23:14:11.685Z,0.70
2018-09-21T23:16:40.538Z,0.95
2018-09-21T23:19:09.321Z,0.90
2018-09-21T23:21:37.833Z,0.90
2018-09-21T23:24:06.306Z,0.93
2018-09-21T23:26:34.761Z,0.95
2018-09-21T23:29:03.205Z,0.85
2018-09-21T23:31:31.674Z,0.95
2018-09-21T23:34:00.951Z,0.90
2018-09-21T23:36:29.409Z,0.90
2018-09-21T23:38:57.873Z,0.90
2018-09-21T23:41:26.665Z,0.78
2018-09-21T23:43:55.144Z,1.05
2018-09-21T23:46:23.841Z,0.93
2018-09-21T23:48:52.289Z,1.17
2018-09-21T23:51:21.109Z,1.27
2018-09-21T23:53:49.764Z,1.30
2018-09-21T23:56:18.239Z,1.00
2018-09-21T23:58:46.718Z,1.22
